617  
SHUS65 KGJT 262014  
FWOGJT  
 
DAILY FIRE WEATHER OBSERVATION  
NATIONAL WEATHER SERVICE GRAND JUNCTION CO  
212 PM MDT WED JUN 26 2019  
 
STATE OF THE WEATHER (W) 1  
DRY BULB TEMPERATURE 89 DEGREES FAHRENHEIT  
RELATIVE HUMIDITY (RH) 14 PERCENT  
LIGHTNING ACTIVITY LEVEL  
(LAL - MIDNIGHT TO 2 PM) 1  
WIND DIRECTION 225 DEGREES (C IF CALM)  
WIND SPEED 16 MPH  
MAX TEMP (2 PM - 2 PM) 90 DEGREES FAHRENHEIT  
MIN TEMP (2 PM - 2 PM) 59 DEGREES FAHRENHEIT  
MAX RH (2 PM - 2 PM) 42 PERCENT  
MIN RH (2 PM - 2 PM) 11 PERCENT  
PCPN DURATION 0.0 HOURS  
PCPN AMT (2 PM - 2 PM) 0.0 INCHES  
LAL (2 PM - 2 PM) 1  
 

 
 
METAR KGJT 261953Z 22014KT 10SM CLR 32/01 A3002 RMK AO2 WSHFT  
1925 SLP087 T03170011  
 
CLICK HERE TO GO TO PREVIOUS BULLETINS.

The Nexlab CO Page
The Nexlab UT Page Main Text Page